sensor_id;sensor_type;location;lat;lon;timestamp;temperature;humidity
15596;DHT22;7898;48.658;9.068;2023-03-04T00:01:30;-0.40;99.90
15596;DHT22;7898;48.658;9.068;2023-03-04T00:03:58;-0.50;99.90
15596;DHT22;7898;48.658;9.068;2023-03-04T00:06:25;-0.50;99.90
15596;DHT22;7898;48.658;9.068;2023-03-04T00:08:52;-0.50;99.90
15596;DHT22;7898;48.658;9.068;2023-03-04T00:11:19;-0.50;99.90
15596;DHT22;7898;48.658;9.068;2023-03-04T00:13:46;-0.60;99.90
15596;DHT22;7898;48.658;9.068;2023-03-04T00:16:13;-0.60;99.90
15596;DHT22;7898;48.658;9.068;2023-03-04T00:18:40;-0.80;99.90
15596;DHT22;7898;48.658;9.068;2023-03-04T00:21:08;-0.70;99.90
15596;DHT22;7898;48.658;9.068;2023-03-04T00:23:35;-0.80;99.90
15596;DHT22;7898;48.658;9.068;2023-03-04T00:26:02;-0.80;99.90
15596;DHT22;7898;48.658;9.068;2023-03-04T00:28:29;-0.80;99.90
15596;DHT22;7898;48.658;9.068;2023-03-04T00:30:55;-0.80;99.90
15596;DHT22;7898;48.658;9.068;2023-03-04T00:33:22;-0.90;99.90
15596;DHT22;7898;48.658;9.068;2023-03-04T00:35:49;-0.90;99.90
15596;DHT22;7898;48.658;9.068;2023-03-04T00:38:17;-0.90;99.90
15596;DHT22;7898;48.658;9.068;2023-03-04T00:40:44;-1.00;99.90
15596;DHT22;7898;48.658;9.068;2023-03-04T00:43:11;-1.00;99.90
15596;DHT22;7898;48.658;9.068;2023-03-04T00:45:38;-0.90;99.90
15596;DHT22;7898;48.658;9.068;2023-03-04T00:48:05;-1.00;99.90
15596;DHT22;7898;48.658;9.068;2023-03-04T00:50:32;-1.00;99.90
15596;DHT22;7898;48.658;9.068;2023-03-04T00:52:59;-1.00;99.90
15596;DHT22;7898;48.658;9.068;2023-03-04T00:55:27;-1.00;99.90
15596;DHT22;7898;48.658;9.068;2023-03-04T00:57:54;-1.00;99.90
15596;DHT22;7898;48.658;9.068;2023-03-04T01:00:21;-1.10;99.90
15596;DHT22;7898;48.658;9.068;2023-03-04T01:02:48;-1.10;99.90
15596;DHT22;7898;48.658;9.068;2023-03-04T01:05:15;-1.10;99.90
15596;DHT22;7898;48.658;9.068;2023-03-04T01:07:42;-1.10;99.90
15596;DHT22;7898;48.658;9.068;2023-03-04T01:10:12;-1.20;99.90
15596;DHT22;7898;48.658;9.068;2023-03-04T01:12:41;-1.20;99.90
15596;DHT22;7898;48.658;9.068;2023-03-04T01:15:09;-1.20;99.90
15596;DHT22;7898;48.658;9.068;2023-03-04T01:17:36;-1.20;99.90
15596;DHT22;7898;48.658;9.068;2023-03-04T01:20:04;-1.30;99.90
15596;DHT22;7898;48.658;9.068;2023-03-04T01:22:32;-1.20;99.90
15596;DHT22;7898;48.658;9.068;2023-03-04T01:24:59;-1.20;99.90
15596;DHT22;7898;48.658;9.068;2023-03-04T01:27:26;-1.20;99.90
15596;DHT22;7898;48.658;9.068;2023-03-04T01:29:54;-1.20;99.90
15596;DHT22;7898;48.658;9.068;2023-03-04T01:32:21;-1.30;99.90
15596;DHT22;7898;48.658;9.068;2023-03-04T01:34:48;-1.40;99.90
15596;DHT22;7898;48.658;9.068;2023-03-04T01:37:15;-1.40;99.90
15596;DHT22;7898;48.658;9.068;2023-03-04T01:39:41;-1.40;99.90
15596;DHT22;7898;48.658;9.068;2023-03-04T01:42:13;-1.40;99.90
15596;DHT22;7898;48.658;9.068;2023-03-04T01:44:43;-1.40;99.90
15596;DHT22;7898;48.658;9.068;2023-03-04T01:47:11;-1.50;99.90
15596;DHT22;7898;48.658;9.068;2023-03-04T01:49:38;-1.50;99.90
15596;DHT22;7898;48.658;9.068;2023-03-04T01:52:08;-1.50;99.90
15596;DHT22;7898;48.658;9.068;2023-03-04T01:54:36;-1.50;99.90
15596;DHT22;7898;48.658;9.068;2023-03-04T01:57:09;-1.50;99.90
15596;DHT22;7898;48.658;9.068;2023-03-04T01:59:41;-1.50;99.90
15596;DHT22;7898;48.658;9.068;2023-03-04T02:02:08;-1.50;99.90
15596;DHT22;7898;48.658;9.068;2023-03-04T02:04:36;-1.60;99.90
15596;DHT22;7898;48.658;9.068;2023-03-04T02:07:03;-1.60;99.90
15596;DHT22;7898;48.658;9.068;2023-03-04T02:09:31;-1.60;99.90
15596;DHT22;7898;48.658;9.068;2023-03-04T02:11:59;-1.60;99.90
15596;DHT22;7898;48.658;9.068;2023-03-04T02:14:26;-1.60;99.90
15596;DHT22;7898;48.658;9.068;2023-03-04T02:16:53;-1.50;99.90
15596;DHT22;7898;48.658;9.068;2023-03-04T02:19:30;-1.50;99.90
15596;DHT22;7898;48.658;9.068;2023-03-04T02:21:59;-1.40;99.90
15596;DHT22;7898;48.658;9.068;2023-03-04T02:24:30;-1.40;99.90
15596;DHT22;7898;48.658;9.068;2023-03-04T02:27:00;-1.30;99.90
15596;DHT22;7898;48.658;9.068;2023-03-04T02:29:28;-1.30;99.90
15596;DHT22;7898;48.658;9.068;2023-03-04T02:31:56;-1.30;99.90
15596;DHT22;7898;48.658;9.068;2023-03-04T02:34:24;-1.30;99.90
15596;DHT22;7898;48.658;9.068;2023-03-04T02:36:54;-1.40;99.90
15596;DHT22;7898;48.658;9.068;2023-03-04T02:39:26;-1.40;99.90
15596;DHT22;7898;48.658;9.068;2023-03-04T02:41:54;-1.40;99.90
15596;DHT22;7898;48.658;9.068;2023-03-04T02:44:24;-1.40;99.90
15596;DHT22;7898;48.658;9.068;2023-03-04T02:46:52;-1.40;99.90
15596;DHT22;7898;48.658;9.068;2023-03-04T02:49:20;-1.20;99.90
15596;DHT22;7898;48.658;9.068;2023-03-04T02:51:50;-1.40;99.90
15596;DHT22;7898;48.658;9.068;2023-03-04T02:54:19;-1.50;99.90
15596;DHT22;7898;48.658;9.068;2023-03-04T02:56:47;-1.50;99.90
15596;DHT22;7898;48.658;9.068;2023-03-04T02:59:14;-1.40;99.90
15596;DHT22;7898;48.658;9.068;2023-03-04T03:01:43;-1.20;99.90
15596;DHT22;7898;48.658;9.068;2023-03-04T03:04:10;-1.50;99.90
15596;DHT22;7898;48.658;9.068;2023-03-04T03:06:37;-1.60;99.90
15596;DHT22;7898;48.658;9.068;2023-03-04T03:09:05;-1.60;99.90
15596;DHT22;7898;48.658;9.068;2023-03-04T03:11:32;-1.60;99.90
15596;DHT22;7898;48.658;9.068;2023-03-04T03:13:59;-1.60;99.90
15596;DHT22;7898;48.658;9.068;2023-03-04T03:16:26;-1.70;99.90
15596;DHT22;7898;48.658;9.068;2023-03-04T03:18:54;-1.80;99.90
15596;DHT22;7898;48.658;9.068;2023-03-04T03:21:21;-1.80;99.90
15596;DHT22;7898;48.658;9.068;2023-03-04T03:23:48;-1.70;99.90
15596;DHT22;7898;48.658;9.068;2023-03-04T03:26:16;-1.80;99.90
15596;DHT22;7898;48.658;9.068;2023-03-04T03:28:43;-1.90;99.90
15596;DHT22;7898;48.658;9.068;2023-03-04T03:31:10;-1.90;99.90
15596;DHT22;7898;48.658;9.068;2023-03-04T03:33:37;-2.00;99.90
15596;DHT22;7898;48.658;9.068;2023-03-04T03:36:07;-2.00;99.90
15596;DHT22;7898;48.658;9.068;2023-03-04T03:38:34;-2.00;99.90
15596;DHT22;7898;48.658;9.068;2023-03-04T03:41:01;-2.00;99.90
15596;DHT22;7898;48.658;9.068;2023-03-04T03:43:27;-2.10;99.90
15596;DHT22;7898;48.658;9.068;2023-03-04T03:45:54;-2.10;99.90
15596;DHT22;7898;48.658;9.068;2023-03-04T03:48:21;-2.10;99.90
15596;DHT22;7898;48.658;9.068;2023-03-04T03:50:48;-2.10;99.90
15596;DHT22;7898;48.658;9.068;2023-03-04T03:53:16;-2.00;99.90
15596;DHT22;7898;48.658;9.068;2023-03-04T03:55:43;-2.10;99.90
15596;DHT22;7898;48.658;9.068;2023-03-04T03:58:10;-2.10;99.90
15596;DHT22;7898;48.658;9.068;2023-03-04T04:00:37;-2.10;99.90
15596;DHT22;7898;48.658;9.068;2023-03-04T04:03:04;-2.10;99.90
15596;DHT22;7898;48.658;9.068;2023-03-04T04:05:31;-2.10;99.90
15596;DHT22;7898;48.658;9.068;2023-03-04T04:07:58;-2.10;99.90
15596;DHT22;7898;48.658;9.068;2023-03-04T04:10:26;-2.10;99.90
15596;DHT22;7898;48.658;9.068;2023-03-04T04:12:53;-2.20;99.90
15596;DHT22;7898;48.658;9.068;2023-03-04T04:15:20;-2.20;99.90
15596;DHT22;7898;48.658;9.068;2023-03-04T04:17:47;-2.20;99.90
15596;DHT22;7898;48.658;9.068;2023-03-04T04:20:13;-2.20;99.90
15596;DHT22;7898;48.658;9.068;2023-03-04T04:22:40;-2.20;99.90
15596;DHT22;7898;48.658;9.068;2023-03-04T04:25:08;-2.20;99.90
15596;DHT22;7898;48.658;9.068;2023-03-04T04:27:36;-2.20;99.90
15596;DHT22;7898;48.658;9.068;2023-03-04T04:30:04;-2.20;99.90
15596;DHT22;7898;48.658;9.068;2023-03-04T04:32:31;-2.10;99.90
15596;DHT22;7898;48.658;9.068;2023-03-04T04:34:58;-2.00;99.90
15596;DHT22;7898;48.658;9.068;2023-03-04T04:37:25;-1.90;99.90
15596;DHT22;7898;48.658;9.068;2023-03-04T04:39:52;-1.90;99.90
15596;DHT22;7898;48.658;9.068;2023-03-04T04:42:20;-1.90;99.90
15596;DHT22;7898;48.658;9.068;2023-03-04T04:44:48;-2.00;99.90
15596;DHT22;7898;48.658;9.068;2023-03-04T04:47:15;-2.10;99.90
15596;DHT22;7898;48.658;9.068;2023-03-04T04:49:41;-2.10;99.90
15596;DHT22;7898;48.658;9.068;2023-03-04T04:52:08;-2.20;99.90
15596;DHT22;7898;48.658;9.068;2023-03-04T04:54:35;-2.20;99.90
15596;DHT22;7898;48.658;9.068;2023-03-04T04:57:02;-2.30;99.90
15596;DHT22;7898;48.658;9.068;2023-03-04T04:59:29;-2.30;99.90
15596;DHT22;7898;48.658;9.068;2023-03-04T05:01:57;-2.40;99.90
15596;DHT22;7898;48.658;9.068;2023-03-04T05:04:24;-2.50;99.90
15596;DHT22;7898;48.658;9.068;2023-03-04T05:06:51;-2.50;99.90
15596;DHT22;7898;48.658;9.068;2023-03-04T05:09:18;-2.60;99.90
15596;DHT22;7898;48.658;9.068;2023-03-04T05:11:45;-2.70;99.90
15596;DHT22;7898;48.658;9.068;2023-03-04T05:14:12;-2.70;99.90
15596;DHT22;7898;48.658;9.068;2023-03-04T05:16:39;-2.70;99.90
15596;DHT22;7898;48.658;9.068;2023-03-04T05:19:07;-2.70;99.90
15596;DHT22;7898;48.658;9.068;2023-03-04T05:21:34;-2.70;99.90
15596;DHT22;7898;48.658;9.068;2023-03-04T05:24:01;-2.60;99.90
15596;DHT22;7898;48.658;9.068;2023-03-04T05:26:27;-2.60;99.90
15596;DHT22;7898;48.658;9.068;2023-03-04T05:28:54;-2.40;99.90
15596;DHT22;7898;48.658;9.068;2023-03-04T05:31:21;-2.50;99.90
15596;DHT22;7898;48.658;9.068;2023-03-04T05:33:48;-2.60;99.90
15596;DHT22;7898;48.658;9.068;2023-03-04T05:36:16;-2.70;99.90
15596;DHT22;7898;48.658;9.068;2023-03-04T05:38:43;-2.80;99.90
15596;DHT22;7898;48.658;9.068;2023-03-04T05:41:10;-2.90;99.90
15596;DHT22;7898;48.658;9.068;2023-03-04T05:43:37;-2.90;99.90
15596;DHT22;7898;48.658;9.068;2023-03-04T05:46:07;-3.00;99.90
15596;DHT22;7898;48.658;9.068;2023-03-04T05:48:34;-2.90;99.90
15596;DHT22;7898;48.658;9.068;2023-03-04T05:51:01;-3.00;99.90
15596;DHT22;7898;48.658;9.068;2023-03-04T05:53:29;-2.90;99.90
15596;DHT22;7898;48.658;9.068;2023-03-04T05:55:56;-2.90;99.90
15596;DHT22;7898;48.658;9.068;2023-03-04T05:58:24;-2.80;99.90
15596;DHT22;7898;48.658;9.068;2023-03-04T06:00:51;-2.80;99.90
15596;DHT22;7898;48.658;9.068;2023-03-04T06:03:20;-2.80;99.90
15596;DHT22;7898;48.658;9.068;2023-03-04T06:05:47;-2.70;99.90
15596;DHT22;7898;48.658;9.068;2023-03-04T06:08:14;-2.80;99.90
15596;DHT22;7898;48.658;9.068;2023-03-04T06:10:42;-2.80;99.90
15596;DHT22;7898;48.658;9.068;2023-03-04T06:13:10;-2.80;99.90
15596;DHT22;7898;48.658;9.068;2023-03-04T06:15:37;-2.80;99.90
15596;DHT22;7898;48.658;9.068;2023-03-04T06:18:05;-2.80;99.90
15596;DHT22;7898;48.658;9.068;2023-03-04T06:20:32;-2.80;99.90
15596;DHT22;7898;48.658;9.068;2023-03-04T06:22:59;-2.70;99.90
15596;DHT22;7898;48.658;9.068;2023-03-04T06:25:25;-2.60;99.90
15596;DHT22;7898;48.658;9.068;2023-03-04T06:27:54;-2.60;99.90
15596;DHT22;7898;48.658;9.068;2023-03-04T06:30:21;-2.40;99.90
15596;DHT22;7898;48.658;9.068;2023-03-04T06:32:49;-2.00;99.90
15596;DHT22;7898;48.658;9.068;2023-03-04T06:35:16;-1.60;99.90
15596;DHT22;7898;48.658;9.068;2023-03-04T06:37:43;-1.10;99.90
15596;DHT22;7898;48.658;9.068;2023-03-04T06:40:11;-0.60;99.90
15596;DHT22;7898;48.658;9.068;2023-03-04T06:42:38;0.00;99.90
15596;DHT22;7898;48.658;9.068;2023-03-04T06:45:08;0.50;99.90
15596;DHT22;7898;48.658;9.068;2023-03-04T06:47:35;1.00;99.90
15596;DHT22;7898;48.658;9.068;2023-03-04T06:50:04;1.40;99.90
15596;DHT22;7898;48.658;9.068;2023-03-04T06:52:31;1.90;99.90
15596;DHT22;7898;48.658;9.068;2023-03-04T06:54:58;2.30;99.90
15596;DHT22;7898;48.658;9.068;2023-03-04T06:57:24;2.60;99.90
15596;DHT22;7898;48.658;9.068;2023-03-04T06:59:51;2.90;99.90
15596;DHT22;7898;48.658;9.068;2023-03-04T07:02:20;3.10;99.90
15596;DHT22;7898;48.658;9.068;2023-03-04T07:04:46;3.60;99.90
15596;DHT22;7898;48.658;9.068;2023-03-04T07:07:13;3.80;99.90
15596;DHT22;7898;48.658;9.068;2023-03-04T07:09:40;4.00;99.90
15596;DHT22;7898;48.658;9.068;2023-03-04T07:12:07;4.20;99.90
15596;DHT22;7898;48.658;9.068;2023-03-04T07:14:34;4.30;99.90
15596;DHT22;7898;48.658;9.068;2023-03-04T07:17:01;4.20;99.90
15596;DHT22;7898;48.658;9.068;2023-03-04T07:19:29;4.00;99.90
15596;DHT22;7898;48.658;9.068;2023-03-04T07:21:56;3.80;99.90
15596;DHT22;7898;48.658;9.068;2023-03-04T07:24:23;3.50;99.90
15596;DHT22;7898;48.658;9.068;2023-03-04T07:26:50;3.00;99.90
15596;DHT22;7898;48.658;9.068;2023-03-04T07:29:17;2.80;99.90
15596;DHT22;7898;48.658;9.068;2023-03-04T07:31:44;2.50;99.90
15596;DHT22;7898;48.658;9.068;2023-03-04T07:34:12;2.20;99.90
15596;DHT22;7898;48.658;9.068;2023-03-04T07:36:41;2.00;99.90
15596;DHT22;7898;48.658;9.068;2023-03-04T07:39:09;1.80;99.90
15596;DHT22;7898;48.658;9.068;2023-03-04T07:41:37;1.50;99.90
15596;DHT22;7898;48.658;9.068;2023-03-04T07:44:05;1.30;99.90
15596;DHT22;7898;48.658;9.068;2023-03-04T07:46:33;1.10;99.90
15596;DHT22;7898;48.658;9.068;2023-03-04T07:49:00;1.00;99.90
15596;DHT22;7898;48.658;9.068;2023-03-04T07:51:27;0.90;99.90
15596;DHT22;7898;48.658;9.068;2023-03-04T07:53:58;0.90;99.90
15596;DHT22;7898;48.658;9.068;2023-03-04T07:56:27;0.90;99.90
15596;DHT22;7898;48.658;9.068;2023-03-04T07:58:55;0.90;99.90
15596;DHT22;7898;48.658;9.068;2023-03-04T08:01:23;1.00;99.90
15596;DHT22;7898;48.658;9.068;2023-03-04T08:03:51;1.10;99.90
15596;DHT22;7898;48.658;9.068;2023-03-04T08:06:18;1.20;99.90
15596;DHT22;7898;48.658;9.068;2023-03-04T08:08:47;1.20;99.90
15596;DHT22;7898;48.658;9.068;2023-03-04T08:11:17;1.20;99.90
15596;DHT22;7898;48.658;9.068;2023-03-04T08:13:45;1.20;99.90
15596;DHT22;7898;48.658;9.068;2023-03-04T08:16:12;1.20;99.90
15596;DHT22;7898;48.658;9.068;2023-03-04T08:18:40;1.40;99.90
15596;DHT22;7898;48.658;9.068;2023-03-04T08:21:09;1.20;99.90
15596;DHT22;7898;48.658;9.068;2023-03-04T08:23:36;1.30;99.90
15596;DHT22;7898;48.658;9.068;2023-03-04T08:26:05;1.30;99.90
15596;DHT22;7898;48.658;9.068;2023-03-04T08:28:34;1.20;99.90
15596;DHT22;7898;48.658;9.068;2023-03-04T08:31:01;1.10;99.90
15596;DHT22;7898;48.658;9.068;2023-03-04T08:33:28;1.10;99.90
15596;DHT22;7898;48.658;9.068;2023-03-04T08:35:56;1.00;99.90
15596;DHT22;7898;48.658;9.068;2023-03-04T08:38:23;0.90;99.90
15596;DHT22;7898;48.658;9.068;2023-03-04T08:40:54;0.90;99.90
15596;DHT22;7898;48.658;9.068;2023-03-04T08:43:21;0.80;99.90
15596;DHT22;7898;48.658;9.068;2023-03-04T08:45:50;0.80;99.90
15596;DHT22;7898;48.658;9.068;2023-03-04T08:48:17;0.80;99.90
15596;DHT22;7898;48.658;9.068;2023-03-04T08:50:45;0.80;99.90
15596;DHT22;7898;48.658;9.068;2023-03-04T08:53:13;1.50;99.90
15596;DHT22;7898;48.658;9.068;2023-03-04T08:55:41;0.90;99.90
15596;DHT22;7898;48.658;9.068;2023-03-04T08:58:09;1.00;99.90
15596;DHT22;7898;48.658;9.068;2023-03-04T09:00:38;1.00;99.90
15596;DHT22;7898;48.658;9.068;2023-03-04T09:03:09;1.40;99.90
15596;DHT22;7898;48.658;9.068;2023-03-04T09:05:37;1.00;99.90
15596;DHT22;7898;48.658;9.068;2023-03-04T09:08:05;1.00;99.90
15596;DHT22;7898;48.658;9.068;2023-03-04T09:10:32;1.10;99.90
15596;DHT22;7898;48.658;9.068;2023-03-04T09:12:59;1.10;99.90
15596;DHT22;7898;48.658;9.068;2023-03-04T09:15:26;1.10;99.90
15596;DHT22;7898;48.658;9.068;2023-03-04T09:17:53;1.10;99.90
15596;DHT22;7898;48.658;9.068;2023-03-04T09:20:21;1.00;99.90
15596;DHT22;7898;48.658;9.068;2023-03-04T09:22:49;1.00;99.90
15596;DHT22;7898;48.658;9.068;2023-03-04T09:25:16;1.00;99.90
15596;DHT22;7898;48.658;9.068;2023-03-04T09:27:43;1.00;99.90
15596;DHT22;7898;48.658;9.068;2023-03-04T09:30:10;1.00;99.90
15596;DHT22;7898;48.658;9.068;2023-03-04T09:32:38;0.90;99.90
15596;DHT22;7898;48.658;9.068;2023-03-04T09:35:06;1.00;99.90
15596;DHT22;7898;48.658;9.068;2023-03-04T09:37:35;1.10;99.90
15596;DHT22;7898;48.658;9.068;2023-03-04T09:40:04;1.10;99.90
15596;DHT22;7898;48.658;9.068;2023-03-04T09:42:34;1.20;99.90
15596;DHT22;7898;48.658;9.068;2023-03-04T09:45:05;1.20;99.90
15596;DHT22;7898;48.658;9.068;2023-03-04T09:47:33;1.20;99.90
15596;DHT22;7898;48.658;9.068;2023-03-04T09:50:05;1.30;99.90
15596;DHT22;7898;48.658;9.068;2023-03-04T09:52:43;1.30;99.90
15596;DHT22;7898;48.658;9.068;2023-03-04T09:55:18;1.40;99.90
15596;DHT22;7898;48.658;9.068;2023-03-04T09:57:51;1.40;99.90
15596;DHT22;7898;48.658;9.068;2023-03-04T10:00:21;1.50;99.90
15596;DHT22;7898;48.658;9.068;2023-03-04T10:03:14;1.80;99.90
15596;DHT22;7898;48.658;9.068;2023-03-04T10:05:48;1.60;99.90
15596;DHT22;7898;48.658;9.068;2023-03-04T10:08:39;1.60;99.90
15596;DHT22;7898;48.658;9.068;2023-03-04T10:11:13;1.60;99.90
15596;DHT22;7898;48.658;9.068;2023-03-04T10:13:49;1.70;99.90
15596;DHT22;7898;48.658;9.068;2023-03-04T10:16:20;1.70;99.90
15596;DHT22;7898;48.658;9.068;2023-03-04T10:18:52;1.80;99.90
15596;DHT22;7898;48.658;9.068;2023-03-04T10:21:25;1.90;99.90
15596;DHT22;7898;48.658;9.068;2023-03-04T10:23:53;2.00;99.90
15596;DHT22;7898;48.658;9.068;2023-03-04T10:26:21;2.10;99.90
15596;DHT22;7898;48.658;9.068;2023-03-04T10:28:48;2.10;99.90
15596;DHT22;7898;48.658;9.068;2023-03-04T10:31:20;2.30;99.90
15596;DHT22;7898;48.658;9.068;2023-03-04T10:33:48;2.40;99.90
15596;DHT22;7898;48.658;9.068;2023-03-04T10:36:33;2.50;99.90
15596;DHT22;7898;48.658;9.068;2023-03-04T10:39:08;2.60;99.90
15596;DHT22;7898;48.658;9.068;2023-03-04T10:41:36;2.80;99.90
15596;DHT22;7898;48.658;9.068;2023-03-04T10:44:14;2.90;99.90
15596;DHT22;7898;48.658;9.068;2023-03-04T10:46:43;2.90;99.90
15596;DHT22;7898;48.658;9.068;2023-03-04T10:49:11;3.00;99.90
15596;DHT22;7898;48.658;9.068;2023-03-04T10:51:42;3.10;99.90
15596;DHT22;7898;48.658;9.068;2023-03-04T10:54:21;3.20;99.90
15596;DHT22;7898;48.658;9.068;2023-03-04T10:56:55;3.30;99.90
15596;DHT22;7898;48.658;9.068;2023-03-04T10:59:42;3.30;99.90
15596;DHT22;7898;48.658;9.068;2023-03-04T11:02:22;3.50;99.90
15596;DHT22;7898;48.658;9.068;2023-03-04T11:04:55;3.70;99.90
15596;DHT22;7898;48.658;9.068;2023-03-04T11:07:24;3.90;99.90
15596;DHT22;7898;48.658;9.068;2023-03-04T11:09:53;4.00;99.90
15596;DHT22;7898;48.658;9.068;2023-03-04T11:12:21;4.20;99.90
15596;DHT22;7898;48.658;9.068;2023-03-04T11:14:57;4.20;99.90
15596;DHT22;7898;48.658;9.068;2023-03-04T11:17:25;4.00;99.90
15596;DHT22;7898;48.658;9.068;2023-03-04T11:19:56;3.90;99.90
15596;DHT22;7898;48.658;9.068;2023-03-04T11:22:24;3.90;99.90
15596;DHT22;7898;48.658;9.068;2023-03-04T11:24:58;4.10;99.90
15596;DHT22;7898;48.658;9.068;2023-03-04T11:27:35;4.00;99.90
15596;DHT22;7898;48.658;9.068;2023-03-04T11:30:18;4.10;99.90
15596;DHT22;7898;48.658;9.068;2023-03-04T11:32:50;4.30;99.90
15596;DHT22;7898;48.658;9.068;2023-03-04T11:35:24;4.30;99.90
15596;DHT22;7898;48.658;9.068;2023-03-04T11:37:59;4.40;99.90
15596;DHT22;7898;48.658;9.068;2023-03-04T11:40:34;4.50;99.90
15596;DHT22;7898;48.658;9.068;2023-03-04T11:43:05;4.70;99.90
15596;DHT22;7898;48.658;9.068;2023-03-04T11:45:48;4.80;99.90
15596;DHT22;7898;48.658;9.068;2023-03-04T11:48:29;4.80;99.90
15596;DHT22;7898;48.658;9.068;2023-03-04T11:51:02;4.90;99.90
15596;DHT22;7898;48.658;9.068;2023-03-04T11:53:38;4.90;99.90
15596;DHT22;7898;48.658;9.068;2023-03-04T11:56:23;4.90;99.90
15596;DHT22;7898;48.658;9.068;2023-03-04T11:59:07;4.70;99.90
15596;DHT22;7898;48.658;9.068;2023-03-04T12:01:45;4.80;99.90
15596;DHT22;7898;48.658;9.068;2023-03-04T12:04:27;5.00;99.90
15596;DHT22;7898;48.658;9.068;2023-03-04T12:07:08;5.20;99.90
15596;DHT22;7898;48.658;9.068;2023-03-04T12:09:44;5.30;99.90
15596;DHT22;7898;48.658;9.068;2023-03-04T12:12:40;5.30;99.90
15596;DHT22;7898;48.658;9.068;2023-03-04T12:15:16;5.40;99.90
15596;DHT22;7898;48.658;9.068;2023-03-04T12:18:10;5.50;99.90
15596;DHT22;7898;48.658;9.068;2023-03-04T12:20:56;5.50;99.90
15596;DHT22;7898;48.658;9.068;2023-03-04T12:23:42;5.50;99.90
15596;DHT22;7898;48.658;9.068;2023-03-04T12:26:22;5.40;99.90
15596;DHT22;7898;48.658;9.068;2023-03-04T12:28:56;5.40;99.90
15596;DHT22;7898;48.658;9.068;2023-03-04T12:31:36;5.30;99.90
15596;DHT22;7898;48.658;9.068;2023-03-04T12:37:18;5.40;99.90
15596;DHT22;7898;48.658;9.068;2023-03-04T12:40:05;5.50;99.90
15596;DHT22;7898;48.658;9.068;2023-03-04T12:42:38;5.40;99.90
15596;DHT22;7898;48.658;9.068;2023-03-04T12:45:17;5.50;99.90
15596;DHT22;7898;48.658;9.068;2023-03-04T12:47:54;5.50;99.90
15596;DHT22;7898;48.658;9.068;2023-03-04T12:50:31;5.60;99.90
15596;DHT22;7898;48.658;9.068;2023-03-04T12:53:10;5.60;99.90
15596;DHT22;7898;48.658;9.068;2023-03-04T12:55:44;5.70;99.90
15596;DHT22;7898;48.658;9.068;2023-03-04T12:58:15;5.60;99.90
15596;DHT22;7898;48.658;9.068;2023-03-04T13:00:51;5.50;99.90
15596;DHT22;7898;48.658;9.068;2023-03-04T13:03:24;5.30;99.90
15596;DHT22;7898;48.658;9.068;2023-03-04T13:06:02;5.20;99.90
15596;DHT22;7898;48.658;9.068;2023-03-04T13:08:37;5.20;99.90
15596;DHT22;7898;48.658;9.068;2023-03-04T13:14:34;5.10;99.90
15596;DHT22;7898;48.658;9.068;2023-03-04T13:17:38;5.20;99.90
15596;DHT22;7898;48.658;9.068;2023-03-04T13:20:19;5.20;99.90
15596;DHT22;7898;48.658;9.068;2023-03-04T13:22:51;5.30;99.90
15596;DHT22;7898;48.658;9.068;2023-03-04T13:25:39;5.40;99.90
15596;DHT22;7898;48.658;9.068;2023-03-04T13:28:17;5.90;99.90
15596;DHT22;7898;48.658;9.068;2023-03-04T13:31:16;6.50;99.90
15596;DHT22;7898;48.658;9.068;2023-03-04T13:33:58;7.40;99.90
15596;DHT22;7898;48.658;9.068;2023-03-04T13:39:34;8.60;99.90
15596;DHT22;7898;48.658;9.068;2023-03-04T13:44:59;8.40;99.90
15596;DHT22;7898;48.658;9.068;2023-03-04T13:47:44;7.80;99.90
15596;DHT22;7898;48.658;9.068;2023-03-04T13:50:32;7.40;99.90
15596;DHT22;7898;48.658;9.068;2023-03-04T13:53:20;7.10;99.90
15596;DHT22;7898;48.658;9.068;2023-03-04T13:56:21;6.80;99.90
15596;DHT22;7898;48.658;9.068;2023-03-04T13:58:51;7.10;99.90
15596;DHT22;7898;48.658;9.068;2023-03-04T14:01:25;7.50;99.90
15596;DHT22;7898;48.658;9.068;2023-03-04T14:03:52;8.10;99.90
15596;DHT22;7898;48.658;9.068;2023-03-04T14:06:22;8.40;99.90
15596;DHT22;7898;48.658;9.068;2023-03-04T14:08:50;8.60;99.90
15596;DHT22;7898;48.658;9.068;2023-03-04T14:11:27;8.50;99.90
15596;DHT22;7898;48.658;9.068;2023-03-04T14:13:57;8.40;99.90
15596;DHT22;7898;48.658;9.068;2023-03-04T14:16:27;8.30;99.90
15596;DHT22;7898;48.658;9.068;2023-03-04T14:19:02;8.10;99.90
15596;DHT22;7898;48.658;9.068;2023-03-04T14:21:33;7.60;99.90
15596;DHT22;7898;48.658;9.068;2023-03-04T14:24:06;7.00;99.90
15596;DHT22;7898;48.658;9.068;2023-03-04T14:26:34;6.20;99.90
15596;DHT22;7898;48.658;9.068;2023-03-04T14:29:01;5.60;99.90
15596;DHT22;7898;48.658;9.068;2023-03-04T14:31:30;5.50;99.90
15596;DHT22;7898;48.658;9.068;2023-03-04T14:34:00;5.20;99.90
15596;DHT22;7898;48.658;9.068;2023-03-04T14:36:29;5.00;99.90
15596;DHT22;7898;48.658;9.068;2023-03-04T14:39:00;4.90;99.90
15596;DHT22;7898;48.658;9.068;2023-03-04T14:41:31;4.60;99.90
15596;DHT22;7898;48.658;9.068;2023-03-04T14:44:04;4.50;99.90
15596;DHT22;7898;48.658;9.068;2023-03-04T14:46:36;4.40;99.90
15596;DHT22;7898;48.658;9.068;2023-03-04T14:49:05;4.30;99.90
15596;DHT22;7898;48.658;9.068;2023-03-04T14:51:39;4.30;99.90
15596;DHT22;7898;48.658;9.068;2023-03-04T14:54:33;4.40;99.90
15596;DHT22;7898;48.658;9.068;2023-03-04T14:57:15;4.40;99.90
15596;DHT22;7898;48.658;9.068;2023-03-04T14:59:46;4.50;99.90
15596;DHT22;7898;48.658;9.068;2023-03-04T15:02:18;4.50;99.90
15596;DHT22;7898;48.658;9.068;2023-03-04T15:04:46;4.40;99.90
15596;DHT22;7898;48.658;9.068;2023-03-04T15:07:15;4.30;99.90
15596;DHT22;7898;48.658;9.068;2023-03-04T15:09:51;4.10;99.90
15596;DHT22;7898;48.658;9.068;2023-03-04T15:12:24;4.00;99.90
15596;DHT22;7898;48.658;9.068;2023-03-04T15:14:52;3.90;99.90
15596;DHT22;7898;48.658;9.068;2023-03-04T15:17:27;3.80;99.90
15596;DHT22;7898;48.658;9.068;2023-03-04T15:19:58;3.80;99.90
15596;DHT22;7898;48.658;9.068;2023-03-04T15:22:25;3.70;99.90
15596;DHT22;7898;48.658;9.068;2023-03-04T15:24:53;3.80;99.90
15596;DHT22;7898;48.658;9.068;2023-03-04T15:27:21;3.60;99.90
15596;DHT22;7898;48.658;9.068;2023-03-04T15:29:50;3.50;99.90
15596;DHT22;7898;48.658;9.068;2023-03-04T15:32:21;3.40;99.90
15596;DHT22;7898;48.658;9.068;2023-03-04T15:34:48;3.30;99.90
15596;DHT22;7898;48.658;9.068;2023-03-04T15:37:19;3.30;99.90
15596;DHT22;7898;48.658;9.068;2023-03-04T15:39:46;3.20;99.90
15596;DHT22;7898;48.658;9.068;2023-03-04T15:42:15;3.20;99.90
15596;DHT22;7898;48.658;9.068;2023-03-04T15:44:42;3.20;99.90
15596;DHT22;7898;48.658;9.068;2023-03-04T15:47:09;3.10;99.90
15596;DHT22;7898;48.658;9.068;2023-03-04T15:49:38;3.10;99.90
15596;DHT22;7898;48.658;9.068;2023-03-04T15:52:08;3.00;99.90
15596;DHT22;7898;48.658;9.068;2023-03-04T15:54:38;3.00;99.90
15596;DHT22;7898;48.658;9.068;2023-03-04T15:57:12;3.00;99.90
15596;DHT22;7898;48.658;9.068;2023-03-04T15:59:43;3.00;99.90
15596;DHT22;7898;48.658;9.068;2023-03-04T16:02:13;3.00;99.90
15596;DHT22;7898;48.658;9.068;2023-03-04T16:04:42;3.00;99.90
15596;DHT22;7898;48.658;9.068;2023-03-04T16:07:14;2.90;99.90
15596;DHT22;7898;48.658;9.068;2023-03-04T16:09:43;2.80;99.90
15596;DHT22;7898;48.658;9.068;2023-03-04T16:12:11;2.80;99.90
15596;DHT22;7898;48.658;9.068;2023-03-04T16:14:38;2.80;99.90
15596;DHT22;7898;48.658;9.068;2023-03-04T16:17:08;2.80;99.90
15596;DHT22;7898;48.658;9.068;2023-03-04T16:19:34;2.70;99.90
15596;DHT22;7898;48.658;9.068;2023-03-04T16:22:01;2.70;99.90
15596;DHT22;7898;48.658;9.068;2023-03-04T16:24:31;2.60;99.90
15596;DHT22;7898;48.658;9.068;2023-03-04T16:26:58;2.60;99.90